Time;durP1;ratioP1;P1;durP2;ratioP2;P2;SDS_P1;SDS_P2;PMS_P1;PMS_P2;Temp;Humidity;BMP_temperature;BMP_pressure;BME280_temperature;BME280_humidity;BME280_pressure;Samples;Min_cycle;Max_cycle;Signal;HPM_P1;HPM_P2
2021/06/29 00:02:11;;;;;;;70.03;66.10;;;;;;;17.97;100.00;96593.25;5103514;28;20191;-59
2021/06/29 00:04:37;;;;;;;49.37;46.50;;;;;;;17.95;100.00;96591.94;5102907;28;20184;-58
2021/06/29 00:07:02;;;;;;;68.73;65.00;;;;;;;17.97;100.00;96587.94;5096080;28;20556;-58
2021/06/29 00:09:28;;;;;;;72.47;68.47;;;;;;;18.03;100.00;96588.69;5099739;28;20384;-59
2021/06/29 00:11:54;;;;;;;74.07;69.87;;;;;;;18.05;100.00;96592.66;5097478;28;20220;-58
2021/06/29 00:14:19;;;;;;;56.93;53.63;;;;;;;18.15;100.00;96589.13;5102384;28;20585;-59
2021/06/29 00:16:44;;;;;;;65.40;61.70;;;;;;;18.23;100.00;96594.59;5103662;28;20187;-59
2021/06/29 00:19:10;;;;;;;86.83;81.93;;;;;;;18.22;100.00;96597.56;5097019;28;20540;-57
2021/06/29 00:21:35;;;;;;;82.73;78.33;;;;;;;18.16;100.00;96598.66;5091302;28;20212;-59
2021/06/29 00:24:01;;;;;;;82.07;77.63;;;;;;;18.13;100.00;96605.31;5093294;28;20637;-58
2021/06/29 00:26:26;;;;;;;65.03;61.43;;;;;;;18.04;100.00;96603.53;5098230;28;20230;-59
2021/06/29 00:28:51;;;;;;;70.17;66.37;;;;;;;17.91;100.00;96604.16;5092612;28;20493;-58
2021/06/29 00:31:17;;;;;;;62.03;58.60;;;;;;;17.94;100.00;96598.31;5107475;28;20554;-59
2021/06/29 00:33:42;;;;;;;63.57;59.93;;;;;;;17.96;100.00;96596.16;5106484;28;20672;-58
2021/06/29 00:36:10;;;;;;;66.23;62.63;;;;;;;17.99;100.00;96591.13;5093279;28;20252;-58
2021/06/29 00:38:35;;;;;;;54.50;51.50;;;;;;;18.03;100.00;96583.38;5099195;28;20208;-58
2021/06/29 00:41:02;;;;;;;61.83;58.27;;;;;;;17.87;100.00;96574.78;5107602;28;20545;-58
2021/06/29 00:43:27;;;;;;;58.43;55.00;;;;;;;17.81;100.00;96574.03;5093241;28;20283;-59
2021/06/29 00:45:53;;;;;;;55.87;52.73;;;;;;;17.95;100.00;96578.66;5104392;28;20183;-58
2021/06/29 00:48:18;;;;;;;60.23;57.00;;;;;;;18.05;100.00;96576.75;5099333;28;20542;-58
2021/06/29 00:50:44;;;;;;;62.27;58.87;;;;;;;18.08;100.00;96564.78;5096725;28;20645;-58
2021/06/29 00:53:11;;;;;;;58.60;55.30;;;;;;;18.13;100.00;96562.06;5108133;28;20570;-58
2021/06/29 00:55:37;;;;;;;53.10;50.20;;;;;;;18.05;100.00;96571.44;5096221;28;20254;-59
2021/06/29 00:58:08;;;;;;;37.23;35.13;;;;;;;18.02;100.00;96561.38;5102016;28;20218;-58
2021/06/29 01:00:33;;;;;;;28.73;27.13;;;;;;;17.89;100.00;96574.50;5096451;28;20192;-58
2021/06/29 01:02:58;;;;;;;33.03;31.13;;;;;;;17.91;100.00;96567.84;5107008;28;20625;-58
2021/06/29 01:05:24;;;;;;;29.53;27.93;;;;;;;18.00;100.00;96560.09;5104728;28;20603;-59
2021/06/29 01:07:49;;;;;;;30.80;29.10;;;;;;;18.09;100.00;96564.50;5100262;28;20179;-59
2021/06/29 01:10:16;;;;;;;27.77;26.00;;;;;;;18.26;100.00;96548.16;5097688;28;20530;-59
2021/06/29 01:12:41;;;;;;;23.50;22.23;;;;;;;18.17;100.00;96547.16;5092832;28;20687;-58
2021/06/29 01:15:07;;;;;;;24.60;23.17;;;;;;;18.21;100.00;96551.66;5104601;28;20177;-58
2021/06/29 01:17:33;;;;;;;22.67;21.43;;;;;;;18.16;100.00;96556.22;5099255;28;20188;-58
2021/06/29 01:19:58;;;;;;;18.10;17.00;;;;;;;18.23;100.00;96554.81;5098233;28;20234;-59
2021/06/29 01:22:26;;;;;;;18.07;17.03;;;;;;;18.13;100.00;96544.28;5104977;28;20183;-59
2021/06/29 01:24:53;;;;;;;16.70;15.70;;;;;;;18.03;100.00;96533.00;5093438;28;20180;-59
2021/06/29 01:27:34;;;;;;;16.50;15.50;;;;;;;18.33;100.00;96527.41;5101561;28;20212;-58
2021/06/29 01:32:27;;;;;;;23.10;21.80;;;;;;;18.13;100.00;96523.06;5095429;28;20199;-59
2021/06/29 01:34:53;;;;;;;26.40;24.90;;;;;;;18.10;100.00;96518.34;5092392;28;20180;-58
2021/06/29 01:37:19;;;;;;;29.50;27.90;;;;;;;18.15;100.00;96517.50;5102632;28;20515;-60
2021/06/29 01:39:53;;;;;;;33.40;31.60;;;;;;;18.07;100.00;96508.28;5108483;28;20295;-58
2021/06/29 01:42:18;;;;;;;41.27;38.97;;;;;;;17.99;100.00;96514.22;5089112;28;20271;-58
2021/06/29 01:44:44;;;;;;;37.73;35.73;;;;;;;17.93;100.00;96512.66;5090076;28;20275;-58
2021/06/29 01:47:11;;;;;;;35.23;33.30;;;;;;;17.91;100.00;96528.06;5104148;28;20267;-59
2021/06/29 01:49:37;;;;;;;38.43;36.40;;;;;;;17.70;100.00;96535.41;5092457;28;20607;-59
2021/06/29 01:52:03;;;;;;;40.60;38.30;;;;;;;17.71;100.00;96520.28;5090855;28;20263;-59
2021/06/29 01:54:28;;;;;;;47.33;44.73;;;;;;;17.52;100.00;96511.38;5089924;28;20534;-60
2021/06/29 01:56:53;;;;;;;49.80;47.07;;;;;;;17.39;100.00;96507.50;5101395;28;20214;-59
2021/06/29 01:59:21;;;;;;;52.93;50.03;;;;;;;17.28;100.00;96506.00;5095898;28;20625;-59
2021/06/29 02:01:46;;;;;;;55.97;52.97;;;;;;;17.29;100.00;96513.69;5089360;28;20234;-58
2021/06/29 02:04:13;;;;;;;41.13;38.77;;;;;;;17.16;100.00;96513.50;5095806;28;20215;-59
2021/06/29 02:06:39;;;;;;;41.70;39.40;;;;;;;17.05;100.00;96510.13;5100952;28;20267;-59
2021/06/29 02:09:09;;;;;;;28.67;26.93;;;;;;;17.09;100.00;96536.84;5092443;28;20264;-59
2021/06/29 02:11:39;;;;;;;33.27;31.47;;;;;;;17.44;100.00;96565.78;5093658;28;20645;-58
2021/06/29 02:14:05;;;;;;;38.63;36.50;;;;;;;17.59;100.00;96576.28;5106229;28;20334;-59
2021/06/29 02:16:31;;;;;;;39.17;37.00;;;;;;;17.74;100.00;96584.16;5100296;28;20588;-59
2021/06/29 02:18:56;;;;;;;47.53;44.83;;;;;;;17.75;100.00;96580.44;5113567;28;20188;-59
2021/06/29 02:21:22;;;;;;;44.77;42.30;;;;;;;17.75;100.00;96592.88;5103139;28;20230;-57
2021/06/29 02:23:47;;;;;;;36.33;34.23;;;;;;;17.89;100.00;96598.38;5113021;28;20254;-58
2021/06/29 02:26:12;;;;;;;49.57;46.77;;;;;;;17.95;100.00;96597.22;5112238;28;20581;-59
2021/06/29 02:28:38;;;;;;;39.53;37.43;;;;;;;17.90;100.00;96591.97;5100115;28;20601;-58
2021/06/29 02:31:03;;;;;;;37.73;35.63;;;;;;;17.76;100.00;96587.31;5102396;28;20328;-58
2021/06/29 02:33:29;;;;;;;38.97;36.50;;;;;;;17.81;100.00;96589.94;5101318;28;20187;-58
2021/06/29 02:35:54;;;;;;;32.93;31.13;;;;;;;17.76;100.00;96587.31;5106177;28;20200;-58
2021/06/29 02:38:22;;;;;;;40.17;37.57;;;;;;;17.86;100.00;96594.41;5103771;28;20586;-56
2021/06/29 02:40:47;;;;;;;41.33;38.93;;;;;;;17.91;100.00;96599.66;5098098;28;20203;-57
2021/06/29 02:43:15;;;;;;;40.80;38.60;;;;;;;17.92;100.00;96590.63;5109760;28;20195;-58
2021/06/29 02:45:41;;;;;;;31.87;30.13;;;;;;;18.07;100.00;96584.41;5097951;28;20176;-57
2021/06/29 02:48:07;;;;;;;32.87;30.97;;;;;;;17.82;100.00;96591.53;5104960;28;20208;-58
2021/06/29 02:50:33;;;;;;;36.00;33.90;;;;;;;17.80;100.00;96577.75;5102115;28;20264;-58
2021/06/29 02:52:58;;;;;;;35.20;33.30;;;;;;;17.78;100.00;96585.16;5093290;28;20173;-57
2021/06/29 02:55:23;;;;;;;37.33;35.33;;;;;;;17.76;100.00;96602.44;5095386;28;20517;-57
2021/06/29 02:57:49;;;;;;;35.77;33.77;;;;;;;17.82;100.00;96606.63;5106369;28;20237;-57
2021/06/29 03:00:17;;;;;;;31.97;30.27;;;;;;;17.79;100.00;96605.31;5102038;28;20299;-57
2021/06/29 03:02:43;;;;;;;38.47;36.27;;;;;;;18.05;100.00;96613.88;5099324;28;20654;-59
2021/06/29 03:05:09;;;;;;;36.27;34.17;;;;;;;17.93;100.00;96620.59;5109114;28;20183;-59
2021/06/29 03:07:34;;;;;;;39.77;37.50;;;;;;;17.85;100.00;96622.78;5089976;28;20184;-59
2021/06/29 03:09:59;;;;;;;49.60;46.83;;;;;;;17.77;100.00;96615.44;5100286;28;20186;-58
2021/06/29 03:12:25;;;;;;;31.30;29.23;;;;;;;17.78;100.00;96621.50;5112646;28;20190;-59
2021/06/29 03:14:53;;;;;;;34.80;32.77;;;;;;;17.85;100.00;96616.69;5111808;28;20175;-58
2021/06/29 03:17:19;;;;;;;35.03;32.77;;;;;;;17.80;100.00;96614.84;5110783;28;20272;-58
2021/06/29 03:19:45;;;;;;;20.23;19.03;;;;;;;17.76;100.00;96602.44;5096991;28;20202;-58
2021/06/29 03:22:11;;;;;;;25.57;23.93;;;;;;;17.77;100.00;96596.88;5111828;28;20184;-60
2021/06/29 03:24:36;;;;;;;23.13;21.83;;;;;;;17.77;100.00;96588.91;5093126;28;20181;-57
2021/06/29 03:27:02;;;;;;;26.50;24.90;;;;;;;17.85;100.00;96568.94;5096682;28;20254;-59
2021/06/29 03:29:28;;;;;;;24.47;23.07;;;;;;;17.66;100.00;96549.50;5104806;28;20199;-59
2021/06/29 03:31:53;;;;;;;23.33;22.00;;;;;;;17.28;100.00;96530.63;5103214;28;20219;-58
2021/06/29 03:34:19;;;;;;;21.77;20.37;;;;;;;17.14;100.00;96521.72;5102443;28;20544;-58
2021/06/29 03:36:44;;;;;;;20.23;18.47;;;;;;;17.07;100.00;96550.38;5092875;28;20555;-59
2021/06/29 03:39:11;;;;;;;22.73;21.30;;;;;;;17.08;100.00;96562.53;5097416;28;20264;-59
2021/06/29 03:41:36;;;;;;;23.33;21.97;;;;;;;17.37;100.00;96557.34;5101692;28;20200;-59
2021/06/29 03:44:02;;;;;;;27.23;25.63;;;;;;;17.53;100.00;96563.34;5101504;28;20271;-58
2021/06/29 03:46:27;;;;;;;22.77;21.40;;;;;;;17.63;100.00;96565.94;5097648;28;20192;-58
2021/06/29 03:48:53;;;;;;;18.87;17.67;;;;;;;17.66;100.00;96571.50;5090021;28;20389;-58
2021/06/29 03:51:18;;;;;;;21.13;19.87;;;;;;;17.70;100.00;96571.72;5105486;28;20241;-59
2021/06/29 03:53:45;;;;;;;14.23;13.33;;;;;;;17.71;100.00;96560.84;5094823;28;20189;-59
2021/06/29 03:56:23;;;;;;;22.43;21.13;;;;;;;17.74;100.00;96565.59;5078685;28;20206;-59
2021/06/29 03:58:53;;;;;;;31.43;29.67;;;;;;;17.74;100.00;96573.53;5103022;28;20187;-59
2021/06/29 04:01:19;;;;;;;54.30;51.33;;;;;;;17.72;100.00;96577.56;5092175;28;20276;-59
2021/06/29 04:03:44;;;;;;;51.73;48.87;;;;;;;17.79;100.00;96570.84;5091514;28;20204;-58
2021/06/29 04:06:10;;;;;;;56.33;53.27;;;;;;;17.82;100.00;96565.00;5107823;28;20222;-60
2021/06/29 04:08:35;;;;;;;66.83;63.07;;;;;;;17.84;100.00;96540.84;5091745;28;20222;-60
2021/06/29 04:11:00;;;;;;;82.07;77.57;;;;;;;17.87;100.00;96537.66;5099458;28;20203;-59
2021/06/29 04:13:26;;;;;;;69.47;65.67;;;;;;;17.85;100.00;96545.88;5104729;28;20183;-59
2021/06/29 04:15:51;;;;;;;78.07;73.80;;;;;;;17.81;100.00;96531.59;5091344;28;20188;-59
2021/06/29 04:18:17;;;;;;;61.93;58.23;;;;;;;17.86;100.00;96512.19;5108237;28;20204;-59
2021/06/29 04:20:43;;;;;;;63.33;59.53;;;;;;;17.83;100.00;96504.81;5099665;28;20242;-59
2021/06/29 04:23:08;;;;;;;63.00;59.63;;;;;;;17.70;100.00;96486.91;5099611;28;20188;-59
2021/06/29 04:25:33;;;;;;;77.17;72.97;;;;;;;17.34;100.00;96459.84;5106100;28;20632;-60
2021/06/29 04:27:59;;;;;;;69.10;65.30;;;;;;;16.96;100.00;96440.28;5092116;28;20180;-59
2021/06/29 04:30:24;;;;;;;64.43;60.83;;;;;;;16.48;100.00;96383.66;5111071;28;20686;-59
2021/06/29 04:32:49;;;;;;;50.27;47.40;;;;;;;15.91;100.00;96316.25;5101653;28;20782;-58
2021/06/29 04:35:15;;;;;;;28.60;26.87;;;;;;;15.62;100.00;96265.91;5098867;28;20633;-59
2021/06/29 04:37:40;;;;;;;9.53;8.70;;;;;;;15.63;100.00;96307.09;5108897;28;20257;-58
2021/06/29 04:40:06;;;;;;;9.00;8.17;;;;;;;15.69;100.00;96337.75;5103243;28;20287;-59
2021/06/29 04:42:32;;;;;;;9.67;8.67;;;;;;;16.03;100.00;96358.22;5088826;28;20265;-60
2021/06/29 04:44:57;;;;;;;8.17;7.47;;;;;;;16.13;100.00;96379.31;5105202;28;20187;-59
2021/06/29 04:47:23;;;;;;;7.27;6.57;;;;;;;16.46;100.00;96420.16;5104724;28;20188;-59
2021/06/29 04:49:48;;;;;;;7.43;6.70;;;;;;;17.07;100.00;96470.13;5098564;28;20182;-59
2021/06/29 04:52:14;;;;;;;10.13;7.57;;;;;;;17.35;100.00;96480.00;5099482;28;20238;-59
2021/06/29 04:54:39;;;;;;;7.33;6.57;;;;;;;17.38;100.00;96485.53;5105311;28;20264;-59
2021/06/29 04:57:05;;;;;;;20.57;19.37;;;;;;;17.44;100.00;96494.25;5091087;28;20283;-59
2021/06/29 04:59:31;;;;;;;50.93;48.13;;;;;;;17.71;100.00;96493.78;5103613;28;20185;-60
2021/06/29 05:01:57;;;;;;;70.73;66.93;;;;;;;17.78;100.00;96494.22;5104115;28;20211;-59
2021/06/29 05:04:22;;;;;;;79.80;75.50;;;;;;;17.79;100.00;96482.56;5093775;28;20587;-60
2021/06/29 05:06:47;;;;;;;54.03;51.03;;;;;;;17.69;100.00;96480.81;5106660;28;20595;-59
2021/06/29 05:09:13;;;;;;;44.17;41.77;;;;;;;17.58;100.00;96486.44;5098033;28;20184;-59
2021/06/29 05:11:38;;;;;;;52.83;49.73;;;;;;;17.55;100.00;96484.34;5099501;28;20667;-60
2021/06/29 05:14:04;;;;;;;61.37;58.00;;;;;;;17.53;100.00;96479.31;5093716;28;20192;-60
2021/06/29 05:16:29;;;;;;;53.27;50.27;;;;;;;17.67;100.00;96474.19;5091907;28;20180;-59
2021/06/29 05:18:55;;;;;;;55.20;52.20;;;;;;;17.39;100.00;96468.56;5091617;28;20195;-59
2021/06/29 05:21:20;;;;;;;59.33;56.10;;;;;;;17.29;100.00;96471.28;5109614;28;20327;-60
2021/06/29 05:23:45;;;;;;;71.87;67.87;;;;;;;17.32;100.00;96472.59;5100935;28;20240;-60
2021/06/29 05:26:11;;;;;;;71.83;67.93;;;;;;;17.44;100.00;96470.41;5091075;28;20188;-59
2021/06/29 05:28:36;;;;;;;76.17;71.87;;;;;;;17.51;100.00;96460.25;5088122;28;20191;-60
2021/06/29 05:31:01;;;;;;;72.57;68.60;;;;;;;17.43;100.00;96455.56;5097805;28;20707;-59
2021/06/29 05:33:27;;;;;;;73.17;69.27;;;;;;;17.31;100.00;96452.47;5100020;28;20191;-59
2021/06/29 05:35:52;;;;;;;64.30;60.70;;;;;;;17.22;100.00;96452.25;5103152;28;20656;-58
2021/06/29 05:38:18;;;;;;;59.27;56.07;;;;;;;17.42;100.00;96464.56;5108480;28;20344;-59
2021/06/29 05:40:43;;;;;;;47.67;45.10;;;;;;;17.22;100.00;96454.16;5098667;28;20200;-58
2021/06/29 05:43:08;;;;;;;35.10;33.10;;;;;;;17.26;100.00;96465.75;5104331;28;20187;-59
2021/06/29 05:45:34;;;;;;;19.27;18.17;;;;;;;17.43;100.00;96468.81;5103915;28;20593;-60
2021/06/29 05:47:59;;;;;;;17.33;16.37;;;;;;;17.42;100.00;96464.56;5107350;28;20222;-59
2021/06/29 05:50:25;;;;;;;16.53;15.63;;;;;;;17.60;100.00;96477.19;5109257;28;20183;-58
2021/06/29 05:52:51;;;;;;;21.57;20.37;;;;;;;17.76;100.00;96475.19;5112820;28;20184;-58
2021/06/29 05:55:16;;;;;;;29.43;27.73;;;;;;;18.03;100.00;96483.41;5112552;28;20184;-59
2021/06/29 05:57:42;;;;;;;23.80;22.30;;;;;;;18.16;100.00;96490.69;5099394;28;20173;-59
2021/06/29 06:00:14;;;;;;;28.40;26.67;;;;;;;18.20;100.00;96498.88;5110742;28;20200;-59
2021/06/29 06:02:40;;;;;;;27.90;26.37;;;;;;;18.41;100.00;96502.09;5108278;28;20176;-59
2021/06/29 06:05:08;;;;;;;25.33;23.93;;;;;;;18.53;100.00;96502.47;5099251;28;20176;-58
2021/06/29 06:07:34;;;;;;;22.03;20.63;;;;;;;18.61;100.00;96493.94;5112630;28;20617;-60
2021/06/29 06:09:59;;;;;;;13.77;13.03;;;;;;;18.68;100.00;96481.88;5111606;28;20187;-58
2021/06/29 06:12:26;;;;;;;8.83;8.33;;;;;;;18.76;100.00;96484.97;5104281;28;20188;-58
2021/06/29 06:14:51;;;;;;;7.95;7.47;;;;;;;18.97;100.00;96478.31;5105063;28;20183;-57
2021/06/29 06:17:17;;;;;;;6.70;6.30;;;;;;;19.13;99.51;96474.34;5110000;28;20210;-57
2021/06/29 06:19:42;;;;;;;6.15;5.70;;;;;;;19.37;97.86;96466.28;5099796;28;20499;-58
2021/06/29 06:22:08;;;;;;;6.18;5.78;;;;;;;19.53;96.27;96457.00;5104064;28;20740;-58
2021/06/29 06:24:33;;;;;;;3.70;3.50;;;;;;;19.80;94.35;96457.06;5107274;28;20198;-60
2021/06/29 06:26:58;;;;;;;3.42;3.22;;;;;;;19.99;92.82;96448.22;5103397;28;20628;-59
2021/06/29 06:29:24;;;;;;;3.20;2.92;;;;;;;20.16;91.11;96437.78;5103401;28;20284;-58
2021/06/29 06:31:49;;;;;;;2.53;2.33;;;;;;;20.37;88.81;96446.97;5105890;28;20181;-59
2021/06/29 06:34:15;;;;;;;1.95;1.85;;;;;;;20.61;86.75;96450.22;5092847;28;20257;-59
2021/06/29 06:36:40;;;;;;;2.22;1.80;;;;;;;21.01;86.09;96445.84;5097060;28;20609;-58
2021/06/29 06:39:06;;;;;;;2.17;2.08;;;;;;;21.47;85.32;96448.28;5111836;28;20231;-59
2021/06/29 06:41:32;;;;;;;3.28;1.75;;;;;;;21.78;83.63;96453.66;5112782;28;20218;-59
2021/06/29 06:43:57;;;;;;;1.90;1.80;;;;;;;22.12;81.53;96452.28;5105567;28;20192;-58
2021/06/29 06:46:22;;;;;;;3.67;1.95;;;;;;;22.35;80.30;96453.75;5099953;28;20261;-60
2021/06/29 06:48:48;;;;;;;1.70;1.60;;;;;;;22.45;76.41;96447.34;5100272;28;20181;-61
2021/06/29 06:51:14;;;;;;;1.67;1.58;;;;;;;22.63;76.88;96436.38;5095373;28;21845;-61
2021/06/29 06:53:39;;;;;;;1.73;1.63;;;;;;;22.85;73.26;96443.50;5107688;28;20188;-61
2021/06/29 06:56:05;;;;;;;1.70;1.60;;;;;;;22.95;72.79;96442.44;5100838;28;20209;-61
2021/06/29 06:58:30;;;;;;;2.50;1.80;;;;;;;23.14;70.24;96443.69;5097259;28;20552;-61
2021/06/29 07:00:56;;;;;;;1.70;1.60;;;;;;;23.10;71.68;96432.06;5102545;28;20228;-61
2021/06/29 07:03:22;;;;;;;1.92;1.83;;;;;;;23.18;71.45;96431.25;5108308;28;20184;-61
2021/06/29 07:05:48;;;;;;;1.67;1.52;;;;;;;23.13;70.90;96434.06;5091897;28;20675;-61
2021/06/29 07:08:13;;;;;;;1.88;1.77;;;;;;;23.30;70.65;96443.97;5106375;28;20615;-61
2021/06/29 07:10:38;;;;;;;2.47;1.63;;;;;;;23.52;69.20;96440.34;5099944;28;20242;-61
2021/06/29 07:13:04;;;;;;;1.60;1.50;;;;;;;23.65;69.19;96430.59;5112196;28;20641;-61
2021/06/29 07:15:29;;;;;;;1.50;1.40;;;;;;;23.67;68.26;96431.84;5093842;28;20315;-61
2021/06/29 07:17:56;;;;;;;1.60;1.50;;;;;;;23.78;67.53;96432.28;5090122;28;20405;-61
2021/06/29 07:20:21;;;;;;;1.30;1.27;;;;;;;23.73;66.27;96425.22;5100369;28;20207;-61
2021/06/29 07:22:47;;;;;;;1.35;1.35;;;;;;;23.87;66.43;96433.03;5100611;28;20188;-61
2021/06/29 07:25:13;;;;;;;1.52;1.42;;;;;;;23.82;65.89;96431.31;5100155;28;20185;-61
2021/06/29 07:27:39;;;;;;;2.38;1.13;;;;;;;23.95;63.09;96430.34;5093796;28;20555;-60
2021/06/29 07:30:07;;;;;;;1.75;1.50;;;;;;;23.71;63.83;96432.78;5092312;28;20624;-60
2021/06/29 07:32:33;;;;;;;1.40;1.30;;;;;;;23.86;64.10;96432.25;5112500;28;20176;-60
2021/06/29 07:34:58;;;;;;;1.13;1.13;;;;;;;23.85;63.40;96427.25;5102623;28;20177;-60
2021/06/29 07:37:24;;;;;;;1.15;1.15;;;;;;;23.95;63.10;96421.53;5102797;28;20317;-59
2021/06/29 07:39:49;;;;;;;1.20;1.20;;;;;;;23.95;59.51;96416.16;5089125;28;20267;-59
2021/06/29 07:42:15;;;;;;;1.13;1.10;;;;;;;23.87;61.24;96428.47;5097920;28;20184;-59
2021/06/29 07:44:40;;;;;;;1.20;1.20;;;;;;;23.97;60.23;96417.41;5105493;28;20536;-60
2021/06/29 07:47:06;;;;;;;1.00;1.00;;;;;;;24.17;58.14;96423.97;5104035;28;20183;-59
2021/06/29 07:49:31;;;;;;;1.30;1.20;;;;;;;24.28;59.32;96421.72;5101157;28;20261;-59
2021/06/29 07:51:56;;;;;;;1.30;1.20;;;;;;;24.19;59.31;96416.41;5100596;28;20184;-59
2021/06/29 07:54:22;;;;;;;1.00;1.00;;;;;;;24.25;59.30;96417.78;5104130;28;20207;-59
2021/06/29 07:56:48;;;;;;;1.35;1.25;;;;;;;24.26;60.11;96408.66;5092834;28;20543;-59
2021/06/29 07:59:13;;;;;;;1.00;1.00;;;;;;;24.48;60.15;96406.78;5098159;28;20199;-59
2021/06/29 08:01:38;;;;;;;1.00;1.00;;;;;;;24.34;57.90;96399.00;5104539;28;20200;-60
2021/06/29 08:04:04;;;;;;;1.00;1.00;;;;;;;24.09;56.96;96411.38;5100300;28;20609;-59
2021/06/29 08:06:29;;;;;;;1.00;1.00;;;;;;;24.26;56.50;96405.19;5102942;28;20195;-59
2021/06/29 08:08:55;;;;;;;0.80;0.80;;;;;;;24.40;56.21;96403.06;5092411;28;20180;-59
2021/06/29 08:11:21;;;;;;;2.05;0.80;;;;;;;24.43;54.15;96405.09;5101086;28;20260;-59
2021/06/29 08:13:46;;;;;;;1.05;0.90;;;;;;;24.51;53.88;96398.13;5094687;28;20204;-59
2021/06/29 08:16:12;;;;;;;2.95;1.08;;;;;;;24.31;56.15;96396.94;5104229;28;20198;-59
2021/06/29 08:18:39;;;;;;;0.90;0.90;;;;;;;24.48;55.03;96398.75;5092527;28;20177;-60
2021/06/29 08:21:06;;;;;;;1.27;0.98;;;;;;;24.61;55.32;96395.84;5088915;28;20227;-59
2021/06/29 08:23:32;;;;;;;1.25;1.00;;;;;;;24.75;54.70;96392.88;5098562;28;20192;-59
2021/06/29 08:25:58;;;;;;;0.90;0.90;;;;;;;24.73;55.35;96395.13;5094211;28;20240;-59
2021/06/29 08:28:24;;;;;;;1.20;1.10;;;;;;;24.60;54.13;96390.78;5103307;28;20188;-59
2021/06/29 08:30:52;;;;;;;2.80;0.93;;;;;;;24.55;54.38;96390.97;5101674;28;20194;-59
2021/06/29 08:33:22;;;;;;;1.02;1.02;;;;;;;24.66;54.92;96397.53;5104480;28;20234;-59
2021/06/29 08:35:49;;;;;;;1.00;1.00;;;;;;;24.57;55.74;96388.78;5104986;28;20221;-59
2021/06/29 08:38:16;;;;;;;1.15;1.15;;;;;;;24.67;55.62;96377.66;5106307;28;20672;-59
2021/06/29 08:40:42;;;;;;;1.00;1.00;;;;;;;24.81;55.38;96370.13;5085487;28;20211;-60
2021/06/29 08:43:09;;;;;;;1.00;1.00;;;;;;;24.88;55.49;96372.28;5106009;28;20180;-59
2021/06/29 08:45:36;;;;;;;0.80;0.80;;;;;;;24.89;55.25;96369.31;5097641;28;20192;-59
2021/06/29 08:48:02;;;;;;;1.58;0.85;;;;;;;24.96;55.09;96361.53;5107779;28;20586;-59
2021/06/29 08:50:31;;;;;;;0.82;0.82;;;;;;;25.13;54.63;96357.91;5104723;28;20187;-60
2021/06/29 08:53:02;;;;;;;1.00;0.90;;;;;;;24.98;55.18;96356.59;5094617;28;20200;-59
2021/06/29 08:55:32;;;;;;;0.93;0.93;;;;;;;25.12;55.08;96357.13;5103623;28;20194;-59
2021/06/29 08:57:57;;;;;;;1.15;1.15;;;;;;;25.21;53.74;96348.97;5098160;28;20185;-59
2021/06/29 09:00:23;;;;;;;1.13;1.13;;;;;;;25.30;54.47;96349.66;5100340;28;20218;-59
2021/06/29 09:02:48;;;;;;;1.23;1.05;;;;;;;25.43;53.62;96353.16;5102214;28;20185;-59
2021/06/29 09:05:21;;;;;;;2.38;1.20;;;;;;;25.70;52.41;96349.88;5098185;28;20325;-59
2021/06/29 09:07:49;;;;;;;1.83;1.20;;;;;;;25.92;51.98;96346.78;5096543;28;20275;-59
2021/06/29 09:10:14;;;;;;;1.02;1.00;;;;;;;26.19;51.01;96342.66;5090374;28;20196;-59
2021/06/29 09:12:44;;;;;;;1.00;1.00;;;;;;;26.15;51.75;96349.78;5090861;28;20249;-60
2021/06/29 09:15:25;;;;;;;0.90;0.90;;;;;;;26.30;51.32;96343.78;5090837;28;20549;-59
2021/06/29 09:17:51;;;;;;;1.13;1.05;;;;;;;26.23;51.70;96348.16;5090595;28;20237;-59
2021/06/29 09:20:29;;;;;;;1.08;1.08;;;;;;;26.04;52.09;96352.16;5100287;28;20215;-59
2021/06/29 09:22:56;;;;;;;1.05;1.00;;;;;;;26.12;52.44;96344.31;5094203;28;20612;-59
2021/06/29 09:25:25;;;;;;;1.08;1.00;;;;;;;26.39;51.79;96344.44;5104937;28;20184;-59
2021/06/29 09:27:50;;;;;;;1.23;1.17;;;;;;;26.59;50.30;96345.38;5103835;28;20179;-60
2021/06/29 09:30:34;;;;;;;1.00;1.00;;;;;;;26.23;49.53;96346.25;5104115;28;20253;-59
2021/06/29 09:33:26;;;;;;;1.00;1.00;;;;;;;25.13;51.35;96333.78;5102151;28;20184;-59
2021/06/29 09:35:54;;;;;;;1.05;1.05;;;;;;;25.14;54.46;96324.59;5109125;28;20196;-59
2021/06/29 09:38:29;;;;;;;1.10;1.10;;;;;;;25.36;53.70;96323.41;5098840;28;20735;-59
2021/06/29 09:41:01;;;;;;;1.08;1.08;;;;;;;25.64;53.04;96321.69;5092026;28;20668;-59
2021/06/29 09:43:28;;;;;;;1.50;1.13;;;;;;;25.73;52.11;96318.91;5107364;28;20233;-59
2021/06/29 09:45:56;;;;;;;1.00;1.00;;;;;;;26.07;50.02;96313.88;5092739;28;20188;-59
2021/06/29 09:48:33;;;;;;;1.20;1.20;;;;;;;26.39;50.13;96303.31;5103882;28;20653;-59
2021/06/29 09:51:05;;;;;;;1.05;1.00;;;;;;;26.63;48.72;96289.81;5102993;28;20212;-59
2021/06/29 09:53:34;;;;;;;1.00;1.00;;;;;;;26.37;49.73;96292.91;5108847;28;20183;-59
2021/06/29 09:56:02;;;;;;;1.20;1.10;;;;;;;25.87;51.63;96292.50;5097025;28;20710;-59
2021/06/29 09:58:31;;;;;;;1.23;1.23;;;;;;;25.34;51.52;96285.41;5092762;28;20263;-59
2021/06/29 10:01:01;;;;;;;0.80;0.80;;;;;;;25.29;53.32;96283.72;5101274;28;20245;-59
2021/06/29 10:03:35;;;;;;;1.13;1.10;;;;;;;24.76;53.45;96271.91;5094772;28;20183;-59
2021/06/29 10:06:27;;;;;;;1.20;1.00;;;;;;;25.19;54.56;96273.41;5108777;28;20190;-59
2021/06/29 10:08:55;;;;;;;1.48;1.13;;;;;;;25.23;53.68;96258.22;5108680;28;20203;-59
2021/06/29 10:11:27;;;;;;;1.00;1.00;;;;;;;25.56;52.67;96258.16;5095563;28;20196;-61
2021/06/29 10:13:54;;;;;;;1.33;1.20;;;;;;;25.61;53.77;96256.03;5104475;28;20176;-60
2021/06/29 10:16:22;;;;;;;1.27;1.00;;;;;;;24.66;54.78;96260.81;5095665;28;20187;-60
2021/06/29 10:19:01;;;;;;;1.30;1.20;;;;;;;23.59;57.31;96256.81;5097710;28;20181;-60
2021/06/29 10:21:28;;;;;;;1.15;1.15;;;;;;;24.13;57.41;96254.28;5081891;28;20593;-60
2021/06/29 10:24:07;;;;;;;1.58;1.10;;;;;;;24.32;55.39;96251.97;5093307;28;20193;-61
2021/06/29 10:26:34;;;;;;;1.10;1.10;;;;;;;24.16;56.79;96248.28;5099732;28;20229;-60
2021/06/29 10:29:05;;;;;;;1.13;1.13;;;;;;;24.88;55.31;96248.94;5112489;28;20227;-60
2021/06/29 10:31:33;;;;;;;1.00;1.00;;;;;;;25.20;54.94;96240.09;5092173;28;20600;-60
2021/06/29 10:34:02;;;;;;;1.10;1.10;;;;;;;25.45;53.77;96240.91;5094359;28;20196;-60
2021/06/29 10:36:30;;;;;;;1.23;1.23;;;;;;;25.51;51.95;96244.94;5106768;28;20305;-59
2021/06/29 10:38:58;;;;;;;1.20;1.20;;;;;;;25.04;52.53;96253.38;5096513;28;20227;-62
2021/06/29 10:41:35;;;;;;;1.20;1.10;;;;;;;25.02;52.13;96249.47;5108605;28;20568;-59
2021/06/29 10:44:01;;;;;;;2.08;1.40;;;;;;;24.69;53.59;96252.91;5107381;28;20627;-59
2021/06/29 10:46:29;;;;;;;1.35;1.30;;;;;;;24.57;54.15;96249.41;5105150;28;20704;-59
2021/06/29 10:48:56;;;;;;;1.60;1.50;;;;;;;24.68;54.65;96242.53;5100661;28;20183;-59
2021/06/29 10:51:38;;;;;;;1.98;1.27;;;;;;;24.51;54.96;96237.31;5105216;28;20262;-59
2021/06/29 10:54:04;;;;;;;2.63;1.60;;;;;;;24.50;54.83;96241.91;5103232;28;20651;-59
2021/06/29 10:57:11;;;;;;;1.60;1.50;;;;;;;23.94;55.99;96238.69;5102202;28;20181;-59
2021/06/29 10:59:39;;;;;;;1.58;1.48;;;;;;;23.83;55.59;96234.03;5064572;28;20540;-59
2021/06/29 11:02:06;;;;;;;2.25;1.40;;;;;;;23.96;55.57;96228.41;5109599;28;20234;-59
2021/06/29 11:04:47;;;;;;;2.33;1.90;;;;;;;24.02;55.87;96223.63;5094514;28;20176;-59
2021/06/29 11:07:25;;;;;;;1.63;1.40;;;;;;;24.50;54.54;96217.78;5111301;28;20183;-59
2021/06/29 11:10:05;;;;;;;4.00;1.40;;;;;;;24.41;54.07;96215.16;5099591;28;20237;-59
2021/06/29 11:12:35;;;;;;;1.25;1.25;;;;;;;24.48;54.65;96211.97;5102750;28;20185;-60
2021/06/29 11:15:05;;;;;;;1.48;1.25;;;;;;;24.90;53.86;96219.94;5078169;28;20338;-60
2021/06/29 11:17:53;;;;;;;2.03;1.17;;;;;;;25.39;51.07;96215.41;5095594;28;20190;-59
2021/06/29 11:20:22;;;;;;;1.30;1.20;;;;;;;25.26;50.88;96211.94;5093757;28;20205;-59
2021/06/29 11:23:01;;;;;;;1.10;1.10;;;;;;;25.11;51.62;96220.66;5097478;28;20206;-60